createdAt,value
2022-12-31T00:00:15.688Z,88.48
2022-12-31T00:02:43.105Z,88.10
2022-12-31T00:05:10.777Z,87.82
2022-12-31T00:10:04.725Z,87.92
2022-12-31T00:12:32.064Z,87.69
2022-12-31T00:14:59.330Z,88.01
2022-12-31T00:17:26.653Z,88.01
2022-12-31T00:19:54.027Z,88.15
2022-12-31T00:22:21.277Z,88.32
2022-12-31T00:24:48.548Z,88.36
2022-12-31T00:27:16.360Z,88.54
2022-12-31T00:29:43.671Z,89.28
2022-12-31T00:32:10.860Z,89.50
2022-12-31T00:34:38.101Z,89.60
2022-12-31T00:37:05.394Z,89.90
2022-12-31T00:39:32.716Z,89.85
2022-12-31T00:41:59.967Z,89.85
2022-12-31T00:44:27.161Z,89.85
2022-12-31T00:46:54.465Z,89.61
2022-12-31T00:49:21.895Z,89.60
2022-12-31T00:51:49.654Z,89.34
2022-12-31T00:54:16.977Z,89.25
2022-12-31T00:56:44.181Z,89.20
2022-12-31T00:59:11.370Z,88.74
2022-12-31T01:01:39.978Z,88.94
2022-12-31T01:04:11.232Z,89.40
2022-12-31T01:06:38.997Z,89.12
2022-12-31T01:09:07.243Z,89.49
2022-12-31T01:11:34.646Z,89.35
2022-12-31T01:14:14.261Z,89.40
2022-12-31T01:16:46.156Z,89.05
2022-12-31T01:19:17.461Z,89.18
2022-12-31T01:21:45.877Z,89.42
2022-12-31T01:24:13.408Z,89.78
2022-12-31T01:26:41.136Z,89.70
2022-12-31T01:29:10.070Z,89.16
2022-12-31T01:31:38.098Z,89.90
2022-12-31T01:34:06.208Z,89.66
2022-12-31T01:36:35.367Z,89.72
2022-12-31T01:39:05.546Z,89.90
2022-12-31T01:41:36.070Z,89.92
2022-12-31T01:44:12.400Z,90.11
2022-12-31T01:47:02.508Z,90.31
2022-12-31T01:49:29.594Z,90.49
2022-12-31T01:52:07.591Z,90.46
2022-12-31T01:54:40.165Z,90.26
2022-12-31T01:57:08.642Z,90.63
2022-12-31T01:59:36.233Z,90.85
2022-12-31T02:02:04.613Z,90.53
2022-12-31T02:04:33.122Z,90.73
2022-12-31T02:07:03.269Z,90.74
2022-12-31T02:09:31.480Z,90.18
2022-12-31T02:11:59.309Z,89.90
2022-12-31T02:14:36.542Z,89.94
2022-12-31T02:17:24.922Z,89.80
2022-12-31T02:20:30.666Z,89.88
2022-12-31T02:23:04.089Z,89.18
2022-12-31T02:25:37.632Z,88.30
2022-12-31T02:28:42.723Z,87.67
2022-12-31T02:31:18.880Z,86.86
2022-12-31T02:33:54.911Z,86.63
2022-12-31T02:36:30.084Z,86.51
2022-12-31T02:38:58.525Z,86.36
2022-12-31T02:41:44.531Z,85.97
2022-12-31T02:44:33.988Z,85.68
2022-12-31T02:47:07.337Z,84.69
2022-12-31T02:50:09.509Z,84.82
2022-12-31T02:53:12.695Z,83.55
2022-12-31T02:56:07.495Z,84.18
2022-12-31T02:58:59.519Z,84.23
2022-12-31T03:01:53.880Z,84.05
2022-12-31T03:04:34.522Z,83.97
2022-12-31T03:07:07.944Z,83.30
2022-12-31T03:09:36.266Z,83.42
2022-12-31T03:12:25.414Z,83.42
2022-12-31T03:14:53.150Z,83.42
2022-12-31T03:17:20.734Z,83.39
2022-12-31T03:20:06.515Z,82.88
2022-12-31T03:22:36.436Z,82.29
2022-12-31T03:25:28.100Z,82.72
2022-12-31T03:27:56.549Z,82.25
2022-12-31T03:30:25.314Z,82.64
2022-12-31T03:32:53.835Z,82.75
2022-12-31T03:35:21.988Z,82.72
2022-12-31T03:37:50.333Z,82.42
2022-12-31T03:40:19.375Z,82.14
2022-12-31T03:42:46.793Z,81.90
2022-12-31T03:45:14.379Z,82.07
2022-12-31T03:47:41.711Z,82.13
2022-12-31T03:50:11.676Z,82.23
2022-12-31T03:52:39.008Z,82.71
2022-12-31T03:55:07.548Z,81.90
2022-12-31T03:57:35.021Z,82.57
2022-12-31T04:00:02.587Z,82.57
2022-12-31T04:02:31.982Z,82.41
2022-12-31T04:04:59.342Z,82.69
2022-12-31T04:07:26.632Z,82.48
2022-12-31T04:09:54.084Z,82.56
2022-12-31T04:12:21.464Z,82.84
2022-12-31T04:14:48.740Z,82.89
2022-12-31T04:17:16.006Z,83.16
2022-12-31T04:19:43.304Z,83.48
2022-12-31T04:22:11.458Z,83.51
2022-12-31T04:24:38.817Z,84.08
2022-12-31T04:27:08.049Z,84.50
2022-12-31T04:29:35.907Z,84.89
2022-12-31T04:32:05.364Z,84.84
2022-12-31T04:34:33.251Z,84.55
2022-12-31T04:37:00.576Z,84.65
2022-12-31T04:39:28.058Z,84.71
2022-12-31T04:41:55.462Z,85.54
2022-12-31T04:44:22.873Z,85.17
2022-12-31T04:46:50.102Z,85.79
2022-12-31T04:49:17.446Z,85.13
2022-12-31T04:51:44.703Z,85.29
2022-12-31T04:54:12.012Z,85.38
2022-12-31T04:56:39.289Z,85.45
2022-12-31T04:59:07.393Z,85.65
2022-12-31T05:01:36.776Z,85.63
2022-12-31T05:04:04.155Z,85.17
2022-12-31T05:06:31.428Z,85.05
2022-12-31T05:08:59.136Z,85.03
2022-12-31T05:11:26.508Z,84.91
2022-12-31T05:13:53.771Z,84.70
2022-12-31T05:16:21.129Z,85.39
2022-12-31T05:18:48.564Z,84.84
2022-12-31T05:21:21.190Z,84.53
2022-12-31T05:23:49.022Z,84.13
2022-12-31T05:26:17.278Z,84.31
2022-12-31T05:28:44.573Z,85.07
2022-12-31T05:31:12.095Z,84.70
2022-12-31T05:33:39.477Z,84.62
2022-12-31T05:36:07.648Z,84.51
2022-12-31T05:38:34.928Z,84.35
2022-12-31T05:41:05.550Z,84.17
2022-12-31T05:43:33.812Z,83.96
2022-12-31T05:46:02.362Z,83.97
2022-12-31T05:48:30.359Z,84.61
2022-12-31T05:50:58.672Z,84.79
2022-12-31T05:53:26.218Z,84.61
2022-12-31T05:55:53.603Z,84.90
2022-12-31T05:58:20.900Z,85.06
2022-12-31T06:00:48.352Z,84.75
2022-12-31T06:03:15.671Z,84.88
2022-12-31T06:05:43.112Z,84.95
2022-12-31T06:08:12.115Z,84.70
2022-12-31T06:10:40.577Z,85.23
2022-12-31T06:13:08.799Z,84.87
2022-12-31T06:15:39.716Z,85.23
2022-12-31T06:18:07.301Z,85.43
2022-12-31T06:20:37.853Z,85.68
2022-12-31T06:23:05.693Z,85.36
2022-12-31T06:25:35.542Z,85.51
2022-12-31T06:28:04.408Z,85.76
2022-12-31T06:30:32.425Z,85.45
2022-12-31T06:32:59.766Z,85.40
2022-12-31T06:35:27.405Z,85.30
2022-12-31T06:37:54.636Z,85.54
2022-12-31T06:40:22.000Z,85.57
2022-12-31T06:42:56.068Z,85.58
2022-12-31T06:45:27.583Z,85.41
2022-12-31T06:47:54.960Z,85.60
2022-12-31T06:50:22.206Z,85.73
2022-12-31T06:52:49.556Z,85.79
2022-12-31T06:55:17.101Z,86.22
2022-12-31T06:57:44.730Z,86.30
2022-12-31T07:00:13.655Z,85.96
2022-12-31T07:03:18.631Z,85.86
2022-12-31T07:05:56.412Z,85.80
2022-12-31T07:08:51.725Z,85.95
2022-12-31T07:11:24.215Z,85.72
2022-12-31T07:14:04.383Z,85.60
2022-12-31T07:17:04.547Z,85.50
2022-12-31T07:19:57.899Z,84.99
2022-12-31T07:22:25.727Z,84.59
2022-12-31T07:24:53.472Z,84.47
2022-12-31T07:27:29.563Z,83.33
2022-12-31T07:30:00.154Z,83.08
2022-12-31T07:32:59.851Z,82.90
2022-12-31T07:35:40.050Z,81.66
2022-12-31T07:38:28.665Z,81.15
2022-12-31T07:41:28.229Z,80.75
2022-12-31T07:44:30.101Z,79.59
2022-12-31T07:47:00.022Z,78.76
2022-12-31T07:49:28.825Z,78.28
2022-12-31T07:51:56.641Z,77.29
2022-12-31T07:54:24.077Z,77.21
2022-12-31T07:56:51.951Z,76.24
2022-12-31T07:59:45.506Z,75.72
2022-12-31T08:02:24.135Z,74.83
2022-12-31T08:04:58.803Z,74.45
2022-12-31T08:07:41.458Z,73.39
2022-12-31T08:10:29.957Z,72.64
2022-12-31T08:13:02.348Z,73.11
2022-12-31T08:15:30.678Z,72.43
2022-12-31T08:17:58.408Z,72.00
2022-12-31T08:20:26.935Z,72.18
2022-12-31T08:23:03.133Z,72.07
2022-12-31T08:26:07.858Z,72.64
2022-12-31T08:29:08.948Z,72.80
2022-12-31T08:32:15.434Z,73.68
2022-12-31T08:34:48.727Z,74.38
2022-12-31T08:37:37.423Z,74.38
2022-12-31T08:40:14.353Z,74.34
2022-12-31T08:42:50.334Z,74.41
2022-12-31T08:45:35.954Z,73.69
2022-12-31T08:48:35.983Z,72.61
2022-12-31T08:51:04.245Z,72.09
2022-12-31T08:53:35.170Z,71.90
2022-12-31T08:56:13.082Z,71.21
2022-12-31T08:59:01.928Z,71.37
2022-12-31T09:01:41.454Z,71.00
2022-12-31T09:04:28.450Z,70.33
2022-12-31T09:07:02.437Z,69.67
2022-12-31T09:10:11.685Z,70.00
2022-12-31T09:12:53.538Z,68.29
2022-12-31T09:15:34.006Z,67.59
2022-12-31T09:18:01.614Z,66.66
2022-12-31T09:20:42.417Z,66.33
2022-12-31T09:23:12.516Z,66.03
2022-12-31T09:26:15.366Z,66.78
2022-12-31T09:28:52.293Z,66.75
2022-12-31T09:31:35.621Z,67.25
2022-12-31T09:34:14.909Z,66.82
2022-12-31T09:36:48.579Z,66.52
2022-12-31T09:39:42.142Z,67.22
2022-12-31T09:42:12.242Z,67.12
2022-12-31T09:45:17.061Z,66.28
2022-12-31T09:47:56.306Z,65.51
2022-12-31T09:50:56.616Z,65.01
2022-12-31T09:53:29.834Z,65.28
2022-12-31T09:56:20.388Z,64.75
2022-12-31T09:58:57.357Z,65.14
2022-12-31T10:01:46.036Z,63.87
2022-12-31T10:04:45.029Z,64.26
2022-12-31T10:07:24.280Z,63.47
2022-12-31T10:10:00.459Z,63.54
2022-12-31T10:12:33.701Z,62.58
2022-12-31T10:15:19.524Z,62.66
2022-12-31T10:17:55.928Z,62.66
2022-12-31T10:20:54.317Z,63.06
2022-12-31T10:23:52.340Z,61.90
2022-12-31T10:26:31.671Z,61.90
2022-12-31T10:29:44.987Z,62.01
2022-12-31T10:32:31.198Z,61.20
2022-12-31T10:35:02.490Z,61.32
2022-12-31T10:37:53.223Z,62.04
2022-12-31T10:40:42.381Z,61.34
2022-12-31T10:43:47.218Z,62.93
2022-12-31T10:46:36.590Z,62.61
2022-12-31T10:49:16.207Z,63.66
2022-12-31T10:52:25.643Z,63.73
2022-12-31T10:55:26.313Z,62.80
2022-12-31T10:58:17.909Z,62.50
2022-12-31T11:00:51.036Z,62.79
2022-12-31T11:03:49.703Z,62.70
2022-12-31T11:06:36.709Z,62.94
2022-12-31T11:09:28.625Z,62.61
2022-12-31T11:12:29.811Z,63.03
2022-12-31T11:15:15.938Z,62.11
2022-12-31T11:17:52.341Z,61.07
2022-12-31T11:20:50.445Z,62.59
2022-12-31T11:24:01.062Z,61.77
2022-12-31T11:26:40.596Z,62.47
2022-12-31T11:29:29.633Z,62.28
2022-12-31T11:32:23.647Z,62.32
2022-12-31T11:35:12.156Z,62.43
2022-12-31T11:37:45.121Z,61.34
2022-12-31T11:40:21.751Z,61.54
2022-12-31T11:43:04.870Z,61.08
2022-12-31T11:46:02.580Z,61.19
2022-12-31T11:48:35.906Z,60.29
2022-12-31T11:51:22.008Z,60.11
2022-12-31T11:54:27.080Z,60.46
2022-12-31T11:57:04.677Z,60.89
2022-12-31T11:59:32.137Z,60.78
2022-12-31T12:02:25.096Z,60.46
2022-12-31T12:04:53.610Z,61.00
2022-12-31T12:07:24.094Z,59.59
2022-12-31T12:09:54.588Z,59.89
2022-12-31T12:12:22.475Z,58.90
2022-12-31T12:14:53.743Z,59.20
2022-12-31T12:17:32.569Z,60.00
2022-12-31T12:20:13.511Z,60.01
2022-12-31T12:22:52.487Z,59.94
2022-12-31T12:25:22.456Z,61.65
2022-12-31T12:27:49.701Z,61.44
2022-12-31T12:30:21.975Z,61.02
2022-12-31T12:33:01.379Z,61.21
2022-12-31T12:35:34.828Z,62.46
2022-12-31T12:38:05.582Z,62.35
2022-12-31T12:40:35.021Z,61.31
2022-12-31T12:43:02.952Z,61.06
2022-12-31T12:45:51.484Z,61.95
2022-12-31T12:48:28.924Z,61.11
2022-12-31T12:50:56.202Z,61.02
2022-12-31T12:53:32.486Z,61.11
2022-12-31T12:56:08.962Z,60.28
2022-12-31T12:58:54.726Z,61.54
2022-12-31T13:01:47.830Z,61.68
2022-12-31T13:04:35.209Z,62.59
2022-12-31T13:07:19.499Z,62.71
2022-12-31T13:10:20.631Z,62.36
2022-12-31T13:15:58.834Z,63.70
2022-12-31T13:19:09.596Z,65.33
2022-12-31T13:21:51.153Z,66.37
2022-12-31T13:24:53.545Z,66.89
2022-12-31T13:27:29.763Z,67.35
2022-12-31T13:30:01.563Z,67.56
2022-12-31T13:32:43.066Z,68.21
2022-12-31T13:35:45.722Z,68.68
2022-12-31T13:38:18.721Z,68.40
2022-12-31T13:40:57.124Z,68.52
2022-12-31T13:43:51.139Z,69.32
2022-12-31T13:46:44.310Z,68.75
2022-12-31T13:49:26.711Z,69.42
2022-12-31T13:52:18.889Z,69.41
2022-12-31T13:55:23.941Z,69.29
2022-12-31T13:58:09.436Z,69.61
2022-12-31T14:01:15.091Z,70.22
2022-12-31T14:03:59.377Z,69.74
2022-12-31T14:06:34.143Z,69.78
2022-12-31T14:09:01.720Z,70.28
2022-12-31T14:11:59.887Z,70.38
2022-12-31T14:14:54.527Z,71.09
2022-12-31T14:17:30.818Z,71.48
2022-12-31T14:20:21.262Z,72.04
2022-12-31T14:23:09.722Z,72.04
2022-12-31T14:25:42.836Z,72.85
2022-12-31T14:28:23.951Z,73.06
2022-12-31T14:31:00.503Z,73.72
2022-12-31T14:33:54.237Z,74.75
2022-12-31T14:36:46.438Z,75.02
2022-12-31T14:39:26.884Z,75.38
2022-12-31T14:42:13.599Z,75.89
2022-12-31T14:45:25.156Z,75.85
2022-12-31T14:48:10.812Z,76.47
2022-12-31T14:50:38.671Z,76.71
2022-12-31T14:53:07.526Z,76.56
2022-12-31T14:55:37.044Z,77.17
2022-12-31T14:58:29.623Z,77.55
2022-12-31T15:01:03.495Z,77.99
2022-12-31T15:03:30.897Z,78.12
2022-12-31T15:06:07.227Z,78.41
2022-12-31T15:08:56.058Z,78.32
2022-12-31T15:12:00.447Z,78.39
2022-12-31T15:14:56.730Z,78.44
2022-12-31T15:17:43.165Z,79.01
2022-12-31T15:20:48.133Z,78.66
2022-12-31T15:23:25.119Z,78.75
2022-12-31T15:26:02.517Z,78.66
2022-12-31T15:28:36.439Z,78.71
2022-12-31T15:31:20.979Z,79.27
2022-12-31T15:33:56.790Z,79.05
2022-12-31T15:36:30.449Z,78.38
2022-12-31T15:39:07.699Z,78.58
2022-12-31T15:42:03.190Z,78.18
2022-12-31T15:44:44.657Z,78.67
2022-12-31T15:47:26.065Z,78.55
2022-12-31T15:49:54.741Z,78.89
2022-12-31T15:52:44.075Z,79.32
2022-12-31T15:55:34.433Z,80.16
2022-12-31T15:58:06.105Z,80.64
2022-12-31T16:00:54.782Z,81.19
2022-12-31T16:03:28.170Z,81.65
2022-12-31T16:06:01.023Z,82.00
2022-12-31T16:08:34.943Z,82.42
2022-12-31T16:11:05.901Z,82.17
2022-12-31T16:13:37.166Z,82.96
2022-12-31T16:16:15.129Z,83.57
2022-12-31T16:18:44.204Z,83.05
2022-12-31T16:21:24.859Z,83.46
2022-12-31T16:23:57.747Z,83.41
2022-12-31T16:26:31.791Z,83.89
2022-12-31T16:29:04.532Z,84.25
2022-12-31T16:31:32.134Z,83.70
2022-12-31T16:34:12.394Z,84.04
2022-12-31T16:36:39.801Z,84.20
2022-12-31T16:39:37.657Z,84.23
2022-12-31T16:42:13.714Z,84.46
2022-12-31T16:44:41.819Z,84.54
2022-12-31T16:47:15.064Z,84.51
2022-12-31T16:49:42.943Z,84.61
2022-12-31T16:52:28.419Z,83.68
2022-12-31T16:54:57.279Z,83.61
2022-12-31T16:57:28.953Z,83.72
2022-12-31T17:00:04.917Z,83.64
2022-12-31T17:02:39.899Z,84.00
2022-12-31T17:05:25.063Z,83.85
2022-12-31T17:07:52.931Z,83.98
2022-12-31T17:10:24.492Z,84.09
2022-12-31T17:15:45.220Z,83.77
2022-12-31T17:18:20.645Z,83.77
2022-12-31T17:20:50.530Z,83.46
2022-12-31T17:23:31.732Z,83.39
2022-12-31T17:26:22.316Z,83.53
2022-12-31T17:28:52.317Z,83.55
2022-12-31T17:31:30.888Z,83.66
2022-12-31T17:34:15.097Z,83.59
2022-12-31T17:36:58.011Z,83.33
2022-12-31T17:39:26.705Z,83.05
2022-12-31T17:41:57.785Z,83.06
2022-12-31T17:44:31.463Z,83.52
2022-12-31T17:46:58.956Z,83.87
2022-12-31T17:49:31.645Z,84.28
2022-12-31T17:51:59.075Z,84.10
2022-12-31T17:54:26.494Z,84.16
2022-12-31T17:56:54.254Z,84.30
2022-12-31T17:59:24.650Z,84.80
2022-12-31T18:01:52.121Z,84.52
2022-12-31T18:04:20.824Z,84.60
2022-12-31T18:06:48.279Z,84.39
2022-12-31T18:09:16.517Z,84.32
2022-12-31T18:11:44.998Z,84.65
2022-12-31T18:14:15.062Z,84.32
2022-12-31T18:16:42.619Z,84.28
2022-12-31T18:19:37.820Z,83.58
2022-12-31T18:22:02.303Z,83.77
2022-12-31T18:24:29.636Z,84.01
2022-12-31T18:26:56.888Z,83.57
2022-12-31T18:29:24.120Z,83.83
2022-12-31T18:31:51.703Z,83.57
2022-12-31T18:34:19.167Z,83.33
2022-12-31T18:36:46.583Z,83.15
2022-12-31T18:39:14.133Z,83.41
2022-12-31T18:41:45.902Z,84.15
2022-12-31T18:44:15.057Z,83.86
2022-12-31T18:46:43.019Z,83.55
2022-12-31T18:49:10.608Z,83.18
2022-12-31T18:51:37.941Z,84.02
2022-12-31T18:54:06.834Z,83.65
2022-12-31T18:56:34.150Z,83.74
2022-12-31T18:59:02.950Z,83.77
2022-12-31T19:01:33.104Z,83.48
2022-12-31T19:04:12.214Z,83.69
2022-12-31T19:06:39.872Z,84.16
2022-12-31T19:09:23.907Z,84.38
2022-12-31T19:11:54.826Z,84.77
2022-12-31T19:14:24.306Z,84.80
2022-12-31T19:16:53.346Z,85.22
2022-12-31T19:19:21.050Z,84.79
2022-12-31T19:21:48.312Z,84.72
2022-12-31T19:24:19.166Z,84.34
2022-12-31T19:26:46.654Z,84.61
2022-12-31T19:29:22.255Z,84.29
2022-12-31T19:31:49.781Z,84.96
2022-12-31T19:34:17.204Z,84.87
2022-12-31T19:36:44.962Z,85.17
2022-12-31T19:39:17.761Z,86.00
2022-12-31T19:41:45.933Z,85.91
2022-12-31T19:44:18.191Z,85.81
2022-12-31T19:46:46.849Z,85.80
2022-12-31T19:49:15.085Z,85.71
2022-12-31T19:51:42.459Z,85.63
2022-12-31T19:54:12.678Z,85.85
2022-12-31T19:56:40.171Z,85.98
2022-12-31T19:59:09.661Z,86.14
2022-12-31T20:01:37.494Z,86.24
2022-12-31T20:04:05.046Z,86.22
2022-12-31T20:06:32.385Z,86.09
2022-12-31T20:08:59.595Z,86.36
2022-12-31T20:11:26.918Z,86.27
2022-12-31T20:13:54.314Z,86.34
2022-12-31T20:16:24.033Z,86.28
2022-12-31T20:18:51.524Z,86.52
2022-12-31T20:21:21.791Z,86.24
2022-12-31T20:23:50.939Z,86.61
2022-12-31T20:26:19.076Z,86.32
2022-12-31T20:28:46.706Z,86.44
2022-12-31T20:31:16.816Z,86.30
2022-12-31T20:33:44.902Z,86.09
2022-12-31T20:36:14.167Z,86.24
2022-12-31T20:38:41.847Z,86.30
2022-12-31T20:41:15.287Z,85.25
2022-12-31T20:43:43.826Z,85.41
2022-12-31T20:46:31.445Z,84.93
2022-12-31T20:49:01.131Z,85.03
2022-12-31T20:51:31.261Z,84.47
2022-12-31T20:54:01.841Z,84.05
2022-12-31T20:56:32.543Z,84.16
2022-12-31T20:59:00.658Z,84.08
2022-12-31T21:01:41.809Z,83.82
2022-12-31T21:04:15.520Z,83.63
2022-12-31T21:06:43.102Z,83.28
2022-12-31T21:09:10.520Z,83.43
2022-12-31T21:11:56.260Z,83.36
2022-12-31T21:14:23.572Z,83.72
2022-12-31T21:16:50.875Z,83.85
2022-12-31T21:19:18.152Z,83.97
2022-12-31T21:21:45.441Z,84.27
2022-12-31T21:24:12.683Z,84.41
2022-12-31T21:26:39.884Z,84.28
2022-12-31T21:29:07.213Z,84.72
2022-12-31T21:31:34.584Z,84.62
2022-12-31T21:34:01.882Z,84.26
2022-12-31T21:36:29.315Z,83.94
2022-12-31T21:38:56.783Z,83.85
2022-12-31T21:41:47.096Z,83.85
2022-12-31T21:44:14.577Z,83.67
2022-12-31T21:47:00.887Z,83.17
2022-12-31T21:49:29.337Z,83.24
2022-12-31T21:52:28.907Z,83.71
2022-12-31T21:55:37.424Z,82.64
2022-12-31T22:01:10.371Z,81.61
2022-12-31T22:03:38.384Z,81.44
2022-12-31T22:06:13.187Z,81.67
2022-12-31T22:08:42.845Z,81.40
2022-12-31T22:11:11.912Z,81.41
2022-12-31T22:13:40.391Z,81.34
2022-12-31T22:16:08.934Z,81.42
2022-12-31T22:18:41.247Z,80.67
2022-12-31T22:21:18.455Z,80.67
2022-12-31T22:23:52.132Z,79.99
2022-12-31T22:26:22.354Z,79.89
2022-12-31T22:28:50.576Z,79.67
2022-12-31T22:31:24.801Z,80.18
2022-12-31T22:33:53.072Z,79.70
2022-12-31T22:36:21.800Z,79.91
2022-12-31T22:38:50.895Z,80.49
2022-12-31T22:41:20.819Z,80.74
2022-12-31T22:43:50.115Z,80.76
2022-12-31T22:46:20.294Z,80.68
2022-12-31T22:48:48.244Z,80.99
2022-12-31T22:51:16.795Z,81.14
2022-12-31T22:53:44.713Z,81.60
2022-12-31T22:56:14.626Z,81.59
2022-12-31T22:58:41.960Z,81.45
2022-12-31T23:01:22.365Z,81.12
2022-12-31T23:03:51.453Z,81.14
2022-12-31T23:06:20.294Z,81.83
2022-12-31T23:09:06.107Z,81.72
2022-12-31T23:11:35.294Z,81.70
2022-12-31T23:14:21.629Z,82.13
2022-12-31T23:17:30.950Z,82.45
2022-12-31T23:20:13.440Z,82.64
2022-12-31T23:22:59.222Z,82.60
2022-12-31T23:25:26.729Z,82.93
2022-12-31T23:27:53.970Z,82.68
2022-12-31T23:30:21.336Z,82.86
2022-12-31T23:32:48.862Z,83.30
2022-12-31T23:35:16.439Z,83.37
2022-12-31T23:37:43.661Z,83.71
2022-12-31T23:40:17.217Z,83.77
2022-12-31T23:42:48.537Z,83.76
2022-12-31T23:45:15.943Z,83.95
2022-12-31T23:47:43.310Z,84.36
2022-12-31T23:50:10.632Z,84.59
2022-12-31T23:52:37.878Z,84.39
2022-12-31T23:55:05.287Z,84.66
2022-12-31T23:57:32.793Z,84.69
